createdAt,value
2023-02-27T00:00:28.023Z,-1.57
2023-02-27T00:01:28.241Z,-1.56
2023-02-27T00:02:28.041Z,-1.46
2023-02-27T00:03:28.088Z,-1.44
2023-02-27T00:04:27.975Z,-1.61
2023-02-27T00:05:27.963Z,-1.56
2023-02-27T00:06:27.977Z,-1.56
2023-02-27T00:07:27.926Z,-1.56
2023-02-27T00:08:27.985Z,-1.54
2023-02-27T00:09:27.895Z,-1.56
2023-02-27T00:10:27.889Z,-1.61
2023-02-27T00:11:28.367Z,-1.51
2023-02-27T00:12:27.865Z,-1.53
2023-02-27T00:13:27.852Z,-1.59
2023-02-27T00:14:27.841Z,-1.49
2023-02-27T00:15:27.825Z,-1.59
2023-02-27T00:16:27.858Z,-1.56
2023-02-27T00:17:27.797Z,-1.57
2023-02-27T00:18:27.790Z,-1.61
2023-02-27T00:19:27.761Z,-1.70
2023-02-27T00:20:27.760Z,-1.72
2023-02-27T00:21:28.073Z,-1.72
2023-02-27T00:22:27.724Z,-1.68
2023-02-27T00:23:27.714Z,-1.62
2023-02-27T00:24:27.702Z,-1.75
2023-02-27T00:25:27.686Z,-1.70
2023-02-27T00:26:27.677Z,-1.68
2023-02-27T00:27:27.680Z,-1.59
2023-02-27T00:28:27.744Z,-1.64
2023-02-27T00:29:27.894Z,-1.68
2023-02-27T00:30:28.192Z,-1.74
2023-02-27T00:31:28.234Z,-1.72
2023-02-27T00:32:27.648Z,-1.62
2023-02-27T00:33:27.585Z,-1.75
2023-02-27T00:34:27.569Z,-1.68
2023-02-27T00:35:27.567Z,-1.64
2023-02-27T00:36:27.537Z,-1.53
2023-02-27T00:37:27.524Z,-1.62
2023-02-27T00:38:27.524Z,-1.64
2023-02-27T00:39:27.505Z,-1.72
2023-02-27T00:40:27.484Z,-1.65
2023-02-27T00:41:27.967Z,-1.67
2023-02-27T00:42:27.463Z,-1.67
2023-02-27T00:43:27.466Z,-1.62
2023-02-27T00:44:27.429Z,-1.64
2023-02-27T00:45:27.422Z,-1.71
2023-02-27T00:46:27.440Z,-1.65
2023-02-27T00:47:27.411Z,-1.54
2023-02-27T00:48:27.373Z,-1.57
2023-02-27T00:49:27.368Z,-1.51
2023-02-27T00:50:27.360Z,-1.49
2023-02-27T00:51:27.690Z,-1.50
2023-02-27T00:52:27.326Z,-1.43
2023-02-27T00:53:27.322Z,-1.51
2023-02-27T00:54:27.308Z,-1.47
2023-02-27T00:55:27.552Z,-1.46
2023-02-27T00:56:27.273Z,-1.49
2023-02-27T00:57:27.301Z,-1.56
2023-02-27T00:58:27.251Z,-1.44
2023-02-27T00:59:27.266Z,-1.57
2023-02-27T01:00:27.215Z,-1.61
2023-02-27T01:01:27.505Z,-1.51
2023-02-27T01:02:27.223Z,-1.62
2023-02-27T01:03:27.181Z,-1.67
2023-02-27T01:04:27.167Z,-1.54
2023-02-27T01:05:27.169Z,-1.65
2023-02-27T01:06:27.137Z,-1.64
2023-02-27T01:07:27.133Z,-1.62
2023-02-27T01:08:27.120Z,-1.67
2023-02-27T01:09:27.103Z,-1.77
2023-02-27T01:10:27.094Z,-1.71
2023-02-27T01:11:27.373Z,-1.61
2023-02-27T01:12:27.073Z,-1.64
2023-02-27T01:13:27.045Z,-1.70
2023-02-27T01:14:27.037Z,-1.80
2023-02-27T01:15:27.055Z,-1.82
2023-02-27T01:16:27.078Z,-1.71
2023-02-27T01:17:26.998Z,-1.82
2023-02-27T01:18:26.981Z,-1.80
2023-02-27T01:19:26.974Z,-1.78
2023-02-27T01:20:26.970Z,-1.80
2023-02-27T01:21:27.388Z,-1.78
2023-02-27T01:22:26.947Z,-1.85
2023-02-27T01:23:26.917Z,-1.74
2023-02-27T01:24:26.919Z,-1.83
2023-02-27T01:25:26.898Z,-1.86
2023-02-27T01:26:26.904Z,-1.75
2023-02-27T01:27:26.868Z,-1.90
2023-02-27T01:28:26.856Z,-1.78
2023-02-27T01:29:26.837Z,-1.85
2023-02-27T01:30:27.099Z,-1.89
2023-02-27T01:31:27.239Z,-1.86
2023-02-27T01:32:26.972Z,-1.88
2023-02-27T01:33:26.788Z,-1.88
2023-02-27T01:34:26.775Z,-1.83
2023-02-27T01:35:26.763Z,-1.83
2023-02-27T01:36:26.756Z,-1.92
2023-02-27T01:37:26.736Z,-2.03
2023-02-27T01:38:26.729Z,-1.98
2023-02-27T01:39:26.709Z,-1.88
2023-02-27T01:40:26.691Z,-1.92
2023-02-27T01:41:27.134Z,-1.82
2023-02-27T01:42:26.669Z,-1.92
2023-02-27T01:43:26.655Z,-1.85
2023-02-27T01:44:26.639Z,-1.96
2023-02-27T01:45:26.631Z,-1.86
2023-02-27T01:46:26.618Z,-2.00
2023-02-27T01:47:26.625Z,-2.01
2023-02-27T01:48:26.598Z,-1.92
2023-02-27T01:49:26.572Z,-1.89
2023-02-27T01:50:26.558Z,-1.88
2023-02-27T01:51:26.840Z,-1.93
2023-02-27T01:52:26.532Z,-1.93
2023-02-27T01:53:26.543Z,-1.96
2023-02-27T01:54:26.510Z,-1.98
2023-02-27T01:55:26.492Z,-1.96
2023-02-27T01:56:26.483Z,-2.04
2023-02-27T01:57:26.462Z,-2.06
2023-02-27T01:58:26.456Z,-2.04
2023-02-27T01:59:26.442Z,-2.01
2023-02-27T02:00:26.435Z,-2.04
2023-02-27T02:01:26.833Z,-2.07
2023-02-27T02:02:26.434Z,-2.08
2023-02-27T02:03:26.412Z,-2.22
2023-02-27T02:04:26.384Z,-2.08
2023-02-27T02:05:26.664Z,-2.08
2023-02-27T02:06:26.353Z,-2.11
2023-02-27T02:07:26.333Z,-2.08
2023-02-27T02:08:26.320Z,-2.14
2023-02-27T02:09:26.308Z,-2.10
2023-02-27T02:10:26.292Z,-2.10
2023-02-27T02:11:26.573Z,-2.10
2023-02-27T02:12:26.272Z,-2.10
2023-02-27T02:13:26.262Z,-2.08
2023-02-27T02:14:26.254Z,-2.11
2023-02-27T02:15:26.225Z,-2.22
2023-02-27T02:16:26.263Z,-2.13
2023-02-27T02:17:26.200Z,-2.22
2023-02-27T02:18:26.189Z,-2.11
2023-02-27T02:19:26.206Z,-2.21
2023-02-27T02:20:26.160Z,-2.18
2023-02-27T02:21:26.563Z,-2.14
2023-02-27T02:22:26.133Z,-2.06
2023-02-27T02:23:26.119Z,-2.07
2023-02-27T02:24:26.116Z,-2.10
2023-02-27T02:25:26.097Z,-2.14
2023-02-27T02:26:27.711Z,-2.11
2023-02-27T02:27:26.070Z,-2.21
2023-02-27T02:28:26.066Z,-2.18
2023-02-27T02:29:26.045Z,-2.18
2023-02-27T02:30:26.092Z,-2.18
2023-02-27T02:31:26.494Z,-2.16
2023-02-27T02:32:26.204Z,-2.19
2023-02-27T02:33:25.995Z,-2.21
2023-02-27T02:34:25.985Z,-2.14
2023-02-27T02:35:25.984Z,-2.18
2023-02-27T02:36:25.950Z,-2.11
2023-02-27T02:37:25.936Z,-2.18
2023-02-27T02:38:25.924Z,-2.18
2023-02-27T02:39:25.916Z,-2.33
2023-02-27T02:40:25.903Z,-2.32
2023-02-27T02:41:26.191Z,-2.26
2023-02-27T02:42:25.873Z,-2.40
2023-02-27T02:43:26.058Z,-2.28
2023-02-27T02:44:25.848Z,-2.38
2023-02-27T02:45:25.830Z,-2.38
2023-02-27T02:46:25.899Z,-2.25
2023-02-27T02:47:25.844Z,-2.35
2023-02-27T02:48:25.799Z,-2.38
2023-02-27T02:49:25.784Z,-2.35
2023-02-27T02:50:25.771Z,-2.33
2023-02-27T02:51:26.100Z,-2.32
2023-02-27T02:52:25.751Z,-2.26
2023-02-27T02:53:31.056Z,-2.35
2023-02-27T02:54:25.722Z,-2.24
2023-02-27T02:55:25.701Z,-2.33
2023-02-27T02:56:25.692Z,-2.26
2023-02-27T02:57:25.678Z,-2.26
2023-02-27T02:58:25.665Z,-2.28
2023-02-27T02:59:25.663Z,-2.25
2023-02-27T03:00:25.649Z,-2.19
2023-02-27T03:01:25.979Z,-2.26
2023-02-27T03:02:25.612Z,-2.28
2023-02-27T03:03:25.614Z,-2.46
2023-02-27T03:04:25.619Z,-2.35
2023-02-27T03:05:25.818Z,-2.26
2023-02-27T03:06:25.568Z,-2.37
2023-02-27T03:07:25.937Z,-2.38
2023-02-27T03:08:25.902Z,-2.46
2023-02-27T03:09:25.523Z,-2.41
2023-02-27T03:10:25.507Z,-2.41
2023-02-27T03:11:25.879Z,-2.47
2023-02-27T03:12:25.477Z,-2.51
2023-02-27T03:13:25.462Z,-2.38
2023-02-27T03:14:25.452Z,-2.46
2023-02-27T03:15:25.440Z,-2.37
2023-02-27T03:16:25.432Z,-2.47
2023-02-27T03:17:25.415Z,-2.53
2023-02-27T03:18:25.400Z,-2.40
2023-02-27T03:19:25.393Z,-2.40
2023-02-27T03:20:25.391Z,-2.43
2023-02-27T03:21:25.822Z,-2.40
2023-02-27T03:22:25.359Z,-2.38
2023-02-27T03:23:25.353Z,-2.29
2023-02-27T03:24:25.321Z,-2.43
2023-02-27T03:25:25.310Z,-2.37
2023-02-27T03:26:25.295Z,-2.47
2023-02-27T03:27:25.275Z,-2.41
2023-02-27T03:28:25.301Z,-2.47
2023-02-27T03:29:25.245Z,-2.50
2023-02-27T03:30:25.237Z,-2.51
2023-02-27T03:31:25.633Z,-2.51
2023-02-27T03:32:25.268Z,-2.51
2023-02-27T03:33:25.194Z,-2.47
2023-02-27T03:34:25.182Z,-2.40
2023-02-27T03:35:25.170Z,-2.44
2023-02-27T03:36:25.160Z,-2.46
2023-02-27T03:37:25.144Z,-2.40
2023-02-27T03:38:25.128Z,-2.46
2023-02-27T03:39:25.246Z,-2.44
2023-02-27T03:40:25.109Z,-2.29
2023-02-27T03:41:25.618Z,-2.37
2023-02-27T03:42:25.077Z,-2.37
2023-02-27T03:43:25.068Z,-2.46
2023-02-27T03:44:25.052Z,-2.38
2023-02-27T03:45:25.040Z,-2.33
2023-02-27T03:46:25.028Z,-2.48
2023-02-27T03:47:25.012Z,-2.44
2023-02-27T03:48:24.995Z,-2.32
2023-02-27T03:49:24.979Z,-2.37
2023-02-27T03:50:24.968Z,-2.50
2023-02-27T03:51:25.299Z,-2.40
2023-02-27T03:52:24.938Z,-2.44
2023-02-27T03:53:24.933Z,-2.44
2023-02-27T03:54:24.942Z,-2.48
2023-02-27T03:55:24.945Z,-2.46
2023-02-27T03:56:24.896Z,-2.40
2023-02-27T03:57:24.880Z,-2.33
2023-02-27T03:58:24.875Z,-2.37
2023-02-27T03:59:24.857Z,-2.35
2023-02-27T04:00:24.847Z,-2.40
2023-02-27T04:01:25.150Z,-2.40
2023-02-27T04:02:24.813Z,-2.46
2023-02-27T04:03:24.816Z,-2.43
2023-02-27T04:04:24.789Z,-2.32
2023-02-27T04:05:24.769Z,-2.32
2023-02-27T04:06:24.783Z,-2.33
2023-02-27T04:07:25.010Z,-2.41
2023-02-27T04:08:24.743Z,-2.38
2023-02-27T04:09:24.722Z,-2.29
2023-02-27T04:10:25.261Z,-2.29
2023-02-27T04:11:24.864Z,-2.29
2023-02-27T04:12:24.686Z,-2.33
2023-02-27T04:13:24.663Z,-2.43
2023-02-27T04:14:24.652Z,-2.46
2023-02-27T04:15:24.688Z,-2.37
2023-02-27T04:16:24.731Z,-2.33
2023-02-27T04:17:24.675Z,-2.32
2023-02-27T04:18:24.607Z,-2.43
2023-02-27T04:19:24.589Z,-2.35
2023-02-27T04:20:24.580Z,-2.22
2023-02-27T04:21:24.710Z,-2.35
2023-02-27T04:22:24.553Z,-2.33
2023-02-27T04:23:24.533Z,-2.28
2023-02-27T04:24:24.520Z,-2.28
2023-02-27T04:25:24.506Z,-2.41
2023-02-27T04:26:24.504Z,-2.29
2023-02-27T04:27:24.514Z,-2.24
2023-02-27T04:28:24.475Z,-2.38
2023-02-27T04:29:24.458Z,-2.44
2023-02-27T04:30:24.445Z,-2.43
2023-02-27T04:31:24.864Z,-2.43
2023-02-27T04:32:24.564Z,-2.48
2023-02-27T04:33:24.413Z,-2.37
2023-02-27T04:34:24.396Z,-2.38
2023-02-27T04:35:24.389Z,-2.26
2023-02-27T04:36:24.375Z,-2.35
2023-02-27T04:37:24.363Z,-2.28
2023-02-27T04:38:24.350Z,-2.41
2023-02-27T04:39:24.329Z,-2.32
2023-02-27T04:40:24.332Z,-2.35
2023-02-27T04:41:24.502Z,-2.35
2023-02-27T04:42:24.304Z,-2.35
2023-02-27T04:43:24.301Z,-2.43
2023-02-27T04:44:24.273Z,-2.47
2023-02-27T04:45:24.298Z,-2.40
2023-02-27T04:46:24.241Z,-2.40
2023-02-27T04:47:24.231Z,-2.47
2023-02-27T04:48:24.231Z,-2.44
2023-02-27T04:49:24.206Z,-2.47
2023-02-27T04:50:24.192Z,-2.38
2023-02-27T04:51:24.260Z,-2.43
2023-02-27T04:52:24.180Z,-2.38
2023-02-27T04:53:24.189Z,-2.40
2023-02-27T04:54:24.288Z,-2.47
2023-02-27T04:55:24.122Z,-2.43
2023-02-27T04:56:24.107Z,-2.47
2023-02-27T04:57:24.103Z,-2.47
2023-02-27T04:58:25.338Z,-2.40
2023-02-27T04:59:24.302Z,-2.51
2023-02-27T05:00:24.059Z,-2.46
2023-02-27T05:01:24.102Z,-2.51
2023-02-27T05:02:24.123Z,-2.51
2023-02-27T05:03:24.022Z,-2.47
2023-02-27T05:04:24.021Z,-2.47
2023-02-27T05:05:23.999Z,-2.55
2023-02-27T05:06:23.981Z,-2.47
2023-02-27T05:07:23.970Z,-2.46
2023-02-27T05:08:24.007Z,-2.50
2023-02-27T05:09:23.940Z,-2.48
2023-02-27T05:10:23.929Z,-2.56
2023-02-27T05:11:23.942Z,-2.53
2023-02-27T05:12:23.903Z,-2.48
2023-02-27T05:13:23.884Z,-2.50
2023-02-27T05:14:23.887Z,-2.46
2023-02-27T05:15:23.970Z,-2.48
2023-02-27T05:16:23.861Z,-2.50
2023-02-27T05:17:23.832Z,-2.38
2023-02-27T05:18:23.821Z,-2.47
2023-02-27T05:19:23.802Z,-2.44
2023-02-27T05:20:23.797Z,-2.53
2023-02-27T05:21:23.787Z,-2.50
2023-02-27T05:22:23.783Z,-2.48
2023-02-27T05:23:23.749Z,-2.40
2023-02-27T05:24:23.737Z,-2.53
2023-02-27T05:25:23.728Z,-2.58
2023-02-27T05:26:23.729Z,-2.55
2023-02-27T05:27:23.703Z,-2.51
2023-02-27T05:28:23.710Z,-2.41
2023-02-27T05:29:23.676Z,-2.53
2023-02-27T05:30:23.658Z,-2.51
2023-02-27T05:31:23.753Z,-2.53
2023-02-27T05:32:23.749Z,-2.48
2023-02-27T05:33:23.623Z,-2.35
2023-02-27T05:34:23.613Z,-2.51
2023-02-27T05:35:23.603Z,-2.56
2023-02-27T05:36:23.580Z,-2.53
2023-02-27T05:37:23.566Z,-2.47
2023-02-27T05:38:23.552Z,-2.47
2023-02-27T05:39:23.537Z,-2.46
2023-02-27T05:40:23.528Z,-2.53
2023-02-27T05:41:23.540Z,-2.56
2023-02-27T05:42:23.503Z,-2.56
2023-02-27T05:43:23.494Z,-2.56
2023-02-27T05:44:23.475Z,-2.56
2023-02-27T05:45:23.461Z,-2.62
2023-02-27T05:46:23.445Z,-2.55
2023-02-27T05:47:23.460Z,-2.55
2023-02-27T05:48:23.424Z,-2.48
2023-02-27T05:49:23.408Z,-2.56
2023-02-27T05:50:23.409Z,-2.58
2023-02-27T05:51:23.382Z,-2.55
2023-02-27T05:52:23.389Z,-2.62
2023-02-27T05:53:23.358Z,-2.59
2023-02-27T05:54:23.344Z,-2.58
2023-02-27T05:55:23.335Z,-2.51
2023-02-27T05:56:23.324Z,-2.51
2023-02-27T05:57:23.308Z,-2.56
2023-02-27T05:58:23.291Z,-2.62
2023-02-27T05:59:23.276Z,-2.53
2023-02-27T06:00:23.264Z,-2.56
2023-02-27T06:01:23.251Z,-2.59
2023-02-27T06:02:23.278Z,-2.55
2023-02-27T06:03:23.295Z,-2.62
2023-02-27T06:04:23.214Z,-2.62
2023-02-27T06:05:23.214Z,-2.59
2023-02-27T06:06:23.187Z,-2.56
2023-02-27T06:07:23.175Z,-2.62
2023-02-27T06:08:23.162Z,-2.62
2023-02-27T06:09:23.159Z,-2.51
2023-02-27T06:10:23.135Z,-2.47
2023-02-27T06:11:23.134Z,-2.65
2023-02-27T06:12:23.384Z,-2.50
2023-02-27T06:13:23.104Z,-2.62
2023-02-27T06:14:23.085Z,-2.51
2023-02-27T06:15:23.075Z,-2.51
2023-02-27T06:16:23.083Z,-2.55
2023-02-27T06:17:23.041Z,-2.58
2023-02-27T06:18:23.031Z,-2.53
2023-02-27T06:19:23.041Z,-2.38
2023-02-27T06:20:23.003Z,-2.55
2023-02-27T06:21:22.989Z,-2.53
2023-02-27T06:22:22.985Z,-2.48
2023-02-27T06:23:22.973Z,-2.56
2023-02-27T06:24:22.955Z,-2.50
2023-02-27T06:25:22.959Z,-2.56
2023-02-27T06:26:22.926Z,-2.61
2023-02-27T06:27:22.915Z,-2.55
2023-02-27T06:28:22.909Z,-2.55
2023-02-27T06:29:22.885Z,-2.41
2023-02-27T06:30:22.867Z,-2.46
2023-02-27T06:31:22.856Z,-2.40
2023-02-27T06:32:22.846Z,-2.38
2023-02-27T06:33:22.841Z,-2.50
2023-02-27T06:34:22.835Z,-2.43
2023-02-27T06:35:22.822Z,-2.38
2023-02-27T06:36:22.793Z,-2.46
2023-02-27T06:37:22.791Z,-2.43
2023-02-27T06:38:22.770Z,-2.26
2023-02-27T06:39:22.757Z,-2.19
2023-02-27T06:40:22.742Z,-2.24
2023-02-27T06:41:22.726Z,-2.01
2023-02-27T06:42:22.709Z,-1.92
2023-02-27T06:43:22.700Z,-1.75
2023-02-27T06:44:22.685Z,-1.51
2023-02-27T06:45:22.672Z,-1.41
2023-02-27T06:46:22.729Z,-1.32
2023-02-27T06:47:22.655Z,-1.23
2023-02-27T06:48:22.635Z,-1.28
2023-02-27T06:49:22.620Z,-1.31
2023-02-27T06:50:22.606Z,-1.18
2023-02-27T06:51:22.608Z,-1.10
2023-02-27T06:52:22.584Z,-1.03
2023-02-27T06:53:22.562Z,-0.93
2023-02-27T06:54:22.575Z,-1.00
2023-02-27T06:55:22.600Z,-0.81
2023-02-27T06:56:22.524Z,-0.81
2023-02-27T06:57:22.531Z,-0.78
2023-02-27T06:58:22.496Z,-0.76
2023-02-27T06:59:22.489Z,-0.59
2023-02-27T07:00:22.495Z,-0.34
2023-02-27T07:01:22.480Z,-0.19
2023-02-27T07:02:22.443Z,0.35
2023-02-27T07:03:22.429Z,0.78
2023-02-27T07:04:22.450Z,1.00
2023-02-27T07:05:22.408Z,1.35
2023-02-27T07:06:22.390Z,1.52
2023-02-27T07:07:34.860Z,1.60
2023-02-27T07:08:23.421Z,1.93
2023-02-27T07:09:22.359Z,2.09
2023-02-27T07:10:22.341Z,2.08
2023-02-27T07:11:22.327Z,1.79
2023-02-27T07:12:22.313Z,1.56
2023-02-27T07:13:22.299Z,1.04
2023-02-27T07:14:22.282Z,0.45
2023-02-27T07:15:22.272Z,0.34
2023-02-27T07:16:22.254Z,0.31
2023-02-27T07:17:22.245Z,0.13
2023-02-27T07:18:22.228Z,-0.01
2023-02-27T07:19:22.219Z,-0.14
2023-02-27T07:20:22.207Z,-0.19
2023-02-27T07:21:22.204Z,-0.13
2023-02-27T07:22:22.182Z,-0.08
2023-02-27T07:23:22.191Z,-0.03
2023-02-27T07:24:22.154Z,-0.16
2023-02-27T07:25:22.138Z,-0.19
2023-02-27T07:26:22.133Z,-0.31
2023-02-27T07:27:22.168Z,-0.16
2023-02-27T07:28:22.140Z,-0.31
2023-02-27T07:29:22.079Z,-0.23
2023-02-27T07:30:22.068Z,-0.17
2023-02-27T07:31:22.132Z,-0.20
2023-02-27T07:32:22.091Z,-0.03
2023-02-27T07:33:22.026Z,-0.01
2023-02-27T07:34:22.012Z,-0.03
2023-02-27T07:35:22.013Z,-0.01
2023-02-27T07:36:21.990Z,-0.02
2023-02-27T07:37:21.978Z,0.07
2023-02-27T07:38:21.962Z,0.22
2023-02-27T07:39:21.980Z,0.26
2023-02-27T07:40:21.942Z,0.10
2023-02-27T07:41:30.397Z,0.12
2023-02-27T07:42:22.942Z,0.02
2023-02-27T07:43:21.902Z,0.08
2023-02-27T07:44:21.890Z,0.19
2023-02-27T07:45:21.876Z,0.26
2023-02-27T07:46:21.874Z,0.34
2023-02-27T07:47:21.846Z,0.31
2023-02-27T07:48:21.846Z,0.22
2023-02-27T07:49:21.842Z,0.38
2023-02-27T07:50:22.156Z,0.31
2023-02-27T07:51:21.802Z,0.20
2023-02-27T07:52:21.790Z,0.34
2023-02-27T07:53:21.770Z,0.23
2023-02-27T07:54:21.756Z,0.28
2023-02-27T07:55:21.765Z,0.37
2023-02-27T07:56:21.724Z,0.41
2023-02-27T07:57:21.717Z,0.44
2023-02-27T07:58:21.705Z,0.59
2023-02-27T07:59:21.688Z,0.84
2023-02-27T08:00:21.669Z,1.04
2023-02-27T08:01:21.660Z,0.92
2023-02-27T08:02:21.666Z,1.13
2023-02-27T08:03:21.640Z,0.95
2023-02-27T08:04:21.667Z,0.90
2023-02-27T08:05:21.617Z,0.84
2023-02-27T08:06:21.597Z,0.74
2023-02-27T08:07:21.585Z,0.71
2023-02-27T08:08:21.569Z,0.59
2023-02-27T08:09:21.567Z,0.62
2023-02-27T08:10:21.549Z,0.43
2023-02-27T08:11:21.545Z,0.49
2023-02-27T08:12:21.516Z,0.52
2023-02-27T08:13:42.249Z,0.44
2023-02-27T08:14:21.485Z,0.30
2023-02-27T08:15:21.488Z,0.43
2023-02-27T08:16:21.514Z,0.40
2023-02-27T08:17:21.453Z,0.45
2023-02-27T08:18:21.439Z,0.48
2023-02-27T08:19:21.424Z,0.49
2023-02-27T08:20:21.408Z,0.53
2023-02-27T08:21:21.406Z,0.38
2023-02-27T08:22:21.382Z,0.45
2023-02-27T08:23:21.366Z,0.63
2023-02-27T08:24:21.387Z,0.63
2023-02-27T08:25:21.350Z,0.71
2023-02-27T08:26:21.324Z,0.74
2023-02-27T08:27:21.336Z,0.80
2023-02-27T08:28:21.298Z,0.68
2023-02-27T08:29:21.289Z,0.80
2023-02-27T08:30:21.282Z,0.88
2023-02-27T08:31:21.299Z,1.13
2023-02-27T08:32:21.323Z,1.34
2023-02-27T08:33:21.233Z,1.53
2023-02-27T08:34:21.225Z,1.81
2023-02-27T08:35:21.198Z,1.83
2023-02-27T08:36:21.185Z,1.79
2023-02-27T08:37:21.170Z,1.85
2023-02-27T08:38:21.168Z,1.88
2023-02-27T08:39:21.152Z,2.00
2023-02-27T08:40:21.138Z,2.41
2023-02-27T08:41:21.125Z,2.87
2023-02-27T08:42:21.112Z,2.87
2023-02-27T08:43:21.126Z,3.01
2023-02-27T08:44:21.081Z,2.95
2023-02-27T08:45:21.071Z,2.81
2023-02-27T08:46:21.063Z,2.77
2023-02-27T08:47:21.041Z,2.62
2023-02-27T08:48:21.028Z,2.61
2023-02-27T08:49:21.747Z,2.55
2023-02-27T08:50:21.001Z,2.58
2023-02-27T08:51:20.989Z,2.47
2023-02-27T08:52:22.841Z,2.62
2023-02-27T08:53:20.970Z,3.04
2023-02-27T08:54:20.940Z,3.17
2023-02-27T08:55:20.935Z,3.49
2023-02-27T08:56:20.922Z,3.37
2023-02-27T08:57:20.916Z,3.28
2023-02-27T08:58:20.943Z,3.45
2023-02-27T08:59:20.909Z,3.82
2023-02-27T09:00:20.935Z,3.80
2023-02-27T09:01:20.896Z,4.10
2023-02-27T09:02:20.914Z,4.91
2023-02-27T09:03:20.825Z,5.38
2023-02-27T09:04:20.810Z,5.67
2023-02-27T09:05:20.796Z,6.33
2023-02-27T09:06:20.783Z,6.99
2023-02-27T09:07:20.772Z,7.63
2023-02-27T09:08:20.781Z,8.22
2023-02-27T09:09:20.747Z,8.58
2023-02-27T09:10:20.733Z,8.64
2023-02-27T09:11:20.715Z,8.50
2023-02-27T09:12:20.704Z,8.54
2023-02-27T09:13:20.687Z,8.82
2023-02-27T09:14:20.786Z,8.49
2023-02-27T09:15:20.697Z,8.68
2023-02-27T09:16:20.666Z,9.01
2023-02-27T09:17:20.680Z,9.16
2023-02-27T09:18:20.630Z,9.13
2023-02-27T09:19:20.610Z,9.20
2023-02-27T09:20:20.599Z,9.42
2023-02-27T09:21:20.599Z,9.67
2023-02-27T09:22:20.589Z,9.89
2023-02-27T09:23:20.598Z,10.20
2023-02-27T09:24:21.020Z,10.62
2023-02-27T09:25:20.560Z,10.78
2023-02-27T09:26:22.908Z,11.13
2023-02-27T09:27:21.525Z,11.02
2023-02-27T09:28:20.489Z,10.57
2023-02-27T09:29:20.474Z,9.89
2023-02-27T09:30:20.453Z,9.80
2023-02-27T09:31:20.604Z,9.63
2023-02-27T09:32:20.535Z,9.86
2023-02-27T09:33:20.417Z,10.02
2023-02-27T09:34:20.401Z,9.86
2023-02-27T09:35:20.451Z,9.20
2023-02-27T09:36:20.377Z,9.06
2023-02-27T09:37:20.367Z,8.79
2023-02-27T09:38:20.352Z,8.45
2023-02-27T09:39:20.334Z,8.49
2023-02-27T09:40:20.342Z,8.29
2023-02-27T09:41:20.306Z,7.71
2023-02-27T09:42:20.308Z,7.30
2023-02-27T09:43:20.329Z,7.05
2023-02-27T09:44:27.951Z,6.90
2023-02-27T09:45:21.280Z,6.46
2023-02-27T09:46:20.342Z,6.19
2023-02-27T09:47:20.272Z,5.90
2023-02-27T09:48:20.211Z,5.60
2023-02-27T09:49:20.200Z,5.37
2023-02-27T09:50:20.199Z,5.42
2023-02-27T09:51:20.196Z,5.65
2023-02-27T09:52:20.162Z,5.69
2023-02-27T09:53:20.164Z,5.83
2023-02-27T09:54:20.130Z,6.16
2023-02-27T09:55:20.128Z,6.05
2023-02-27T09:56:20.108Z,6.05
2023-02-27T09:57:20.089Z,6.13
2023-02-27T09:58:20.072Z,6.08
2023-02-27T09:59:20.062Z,5.88
2023-02-27T10:00:20.066Z,5.83
2023-02-27T10:01:20.035Z,5.62
2023-02-27T10:02:20.043Z,5.52
2023-02-27T10:03:20.100Z,5.44
2023-02-27T10:04:19.993Z,5.27
2023-02-27T10:05:19.982Z,5.01
2023-02-27T10:06:19.968Z,4.91
2023-02-27T10:07:19.952Z,4.75
2023-02-27T10:08:19.939Z,4.65
2023-02-27T10:09:19.920Z,4.31
2023-02-27T10:10:19.930Z,4.24
2023-02-27T10:11:19.895Z,4.14
2023-02-27T10:12:19.899Z,3.99
2023-02-27T10:13:19.870Z,4.16
2023-02-27T10:14:19.858Z,4.06
2023-02-27T10:15:19.849Z,4.08
2023-02-27T10:16:19.844Z,3.86
2023-02-27T10:17:19.818Z,3.74
2023-02-27T10:18:28.321Z,3.72
2023-02-27T10:19:20.841Z,3.93
2023-02-27T10:20:19.847Z,4.04
2023-02-27T10:21:19.768Z,3.98
2023-02-27T10:22:19.771Z,4.04
2023-02-27T10:23:19.736Z,3.96
2023-02-27T10:24:19.725Z,4.06
2023-02-27T10:25:30.721Z,4.10
2023-02-27T10:26:19.697Z,4.08
2023-02-27T10:27:19.688Z,4.21
2023-02-27T10:28:19.676Z,4.21
2023-02-27T10:29:19.655Z,4.31
2023-02-27T10:30:28.477Z,4.42
2023-02-27T10:31:24.038Z,4.50
2023-02-27T10:32:19.818Z,4.62
2023-02-27T10:33:19.606Z,4.77
2023-02-27T10:34:19.600Z,4.99
2023-02-27T10:35:19.605Z,4.99
2023-02-27T10:36:32.610Z,4.84
2023-02-27T10:37:19.903Z,4.61
2023-02-27T10:38:19.537Z,4.83
2023-02-27T10:39:19.519Z,4.91
2023-02-27T10:40:19.559Z,4.83
2023-02-27T10:41:19.494Z,4.74
2023-02-27T10:42:19.485Z,4.67
2023-02-27T10:43:19.531Z,4.67
2023-02-27T10:44:19.451Z,4.53
2023-02-27T10:45:19.443Z,4.62
2023-02-27T10:46:19.446Z,4.84
2023-02-27T10:47:19.429Z,4.93
2023-02-27T10:48:19.405Z,5.14
2023-02-27T10:49:19.512Z,5.32
2023-02-27T10:50:19.368Z,5.23
2023-02-27T10:51:19.381Z,5.15
2023-02-27T10:52:19.344Z,5.02
2023-02-27T10:53:19.324Z,4.75
2023-02-27T10:54:19.314Z,4.54
2023-02-27T10:55:19.299Z,4.57
2023-02-27T10:56:19.284Z,4.61
2023-02-27T10:57:19.291Z,4.57
2023-02-27T10:58:19.268Z,4.62
2023-02-27T10:59:19.246Z,4.96
2023-02-27T11:00:19.235Z,5.52
2023-02-27T11:01:19.256Z,6.21
2023-02-27T11:02:19.207Z,6.21
2023-02-27T11:03:19.189Z,6.11
2023-02-27T11:04:19.265Z,6.19
2023-02-27T11:05:19.164Z,6.35
2023-02-27T11:06:19.153Z,6.46
2023-02-27T11:07:19.166Z,6.54
2023-02-27T11:08:19.124Z,6.73
2023-02-27T11:09:19.108Z,7.00
2023-02-27T11:10:19.120Z,7.14
2023-02-27T11:11:19.082Z,6.97
2023-02-27T11:12:19.077Z,6.97
2023-02-27T11:13:19.048Z,7.14
2023-02-27T11:14:19.088Z,7.36
2023-02-27T11:15:19.025Z,6.89
2023-02-27T11:16:19.198Z,6.73
2023-02-27T11:17:19.001Z,6.60
2023-02-27T11:18:19.002Z,6.46
2023-02-27T11:19:18.969Z,6.61
2023-02-27T11:20:18.955Z,6.58
2023-02-27T11:21:18.952Z,6.61
2023-02-27T11:22:18.943Z,6.72
2023-02-27T11:23:18.991Z,6.64
2023-02-27T11:24:18.906Z,6.71
2023-02-27T11:25:18.904Z,6.58
2023-02-27T11:26:18.875Z,6.39
2023-02-27T11:27:18.869Z,6.30
2023-02-27T11:28:18.864Z,6.25
2023-02-27T11:29:18.845Z,5.83
2023-02-27T11:30:18.833Z,5.42
2023-02-27T11:31:18.886Z,5.14
2023-02-27T11:32:18.884Z,5.01
2023-02-27T11:33:18.789Z,5.19
2023-02-27T11:34:18.780Z,4.97
2023-02-27T11:35:18.756Z,5.01
2023-02-27T11:36:18.844Z,5.41
2023-02-27T11:37:18.986Z,5.45
2023-02-27T11:38:18.871Z,5.75
2023-02-27T11:39:18.730Z,6.33
2023-02-27T11:40:18.688Z,6.73
2023-02-27T11:41:18.681Z,6.79
2023-02-27T11:42:18.732Z,6.76
2023-02-27T11:43:18.655Z,6.53
2023-02-27T11:44:21.583Z,6.69
2023-02-27T11:46:04.938Z,7.00
2023-02-27T11:46:46.679Z,6.63
2023-02-27T11:47:19.690Z,7.15
2023-02-27T11:48:18.594Z,8.12
2023-02-27T11:49:18.571Z,8.75
2023-02-27T11:50:18.569Z,9.63
2023-02-27T11:51:18.541Z,9.27
2023-02-27T11:52:18.532Z,9.77
2023-02-27T11:53:18.514Z,10.43
2023-02-27T11:54:18.503Z,9.52
2023-02-27T11:55:18.510Z,9.30
2023-02-27T11:56:18.475Z,9.86
2023-02-27T11:57:18.466Z,9.03
2023-02-27T11:58:18.445Z,8.85
2023-02-27T11:59:18.436Z,9.74
2023-02-27T12:00:18.585Z,9.44
2023-02-27T12:01:18.411Z,8.82
2023-02-27T12:02:18.400Z,8.63
2023-02-27T12:03:18.394Z,8.24
2023-02-27T12:04:18.441Z,7.66
2023-02-27T12:05:18.353Z,7.67
2023-02-27T12:06:18.346Z,7.04
2023-02-27T12:07:18.322Z,6.75
2023-02-27T12:08:18.314Z,6.58
2023-02-27T12:09:18.296Z,6.40
2023-02-27T12:10:18.281Z,5.96
2023-02-27T12:11:18.290Z,5.69
2023-02-27T12:12:18.258Z,5.30
2023-02-27T12:13:18.244Z,5.45
2023-02-27T12:14:18.233Z,5.29
2023-02-27T12:15:18.213Z,5.09
2023-02-27T12:16:18.288Z,5.02
2023-02-27T12:17:18.190Z,5.02
2023-02-27T12:18:18.190Z,5.23
2023-02-27T12:19:18.157Z,5.29
2023-02-27T12:20:18.145Z,5.24
2023-02-27T12:21:18.130Z,5.14
2023-02-27T12:22:18.218Z,5.04
2023-02-27T12:23:18.104Z,5.08
2023-02-27T12:24:18.094Z,5.04
2023-02-27T12:25:18.097Z,4.90
2023-02-27T12:26:18.066Z,5.01
2023-02-27T12:27:18.082Z,4.83
2023-02-27T12:28:18.036Z,4.87
2023-02-27T12:29:18.025Z,4.91
2023-02-27T12:30:18.010Z,4.90
2023-02-27T12:31:18.113Z,4.84
2023-02-27T12:32:18.051Z,4.77
2023-02-27T12:33:17.994Z,4.79
2023-02-27T12:34:17.958Z,4.83
2023-02-27T12:35:17.947Z,4.87
2023-02-27T12:36:17.954Z,4.74
2023-02-27T12:37:17.919Z,4.90
2023-02-27T12:38:17.894Z,4.99
2023-02-27T12:39:17.893Z,4.87
2023-02-27T12:40:17.880Z,4.88
2023-02-27T12:41:17.870Z,4.84
2023-02-27T12:42:17.920Z,4.93
2023-02-27T12:43:17.861Z,4.74
2023-02-27T12:44:17.814Z,4.84
2023-02-27T12:45:17.806Z,4.72
2023-02-27T12:46:17.790Z,4.88
2023-02-27T12:47:17.770Z,4.84
2023-02-27T12:48:17.779Z,4.84
2023-02-27T12:49:17.754Z,4.79
2023-02-27T12:50:17.740Z,4.69
2023-02-27T12:51:17.728Z,4.75
2023-02-27T12:52:17.714Z,4.72
2023-02-27T12:53:17.697Z,4.61
2023-02-27T12:54:17.688Z,4.42
2023-02-27T12:55:17.660Z,4.47
2023-02-27T12:56:17.950Z,4.43
2023-02-27T12:57:17.655Z,4.47
2023-02-27T12:58:17.790Z,4.34
2023-02-27T12:59:17.634Z,4.46
2023-02-27T13:00:17.605Z,4.31
2023-02-27T13:01:17.638Z,4.42
2023-02-27T13:02:17.594Z,4.24
2023-02-27T13:03:17.560Z,4.26